Time;durP1;ratioP1;P1;durP2;ratioP2;P2;SDS_P1;SDS_P2;PMS_P1;PMS_P2;Temp;Humidity;BMP_temperature;BMP_pressure;BME280_temperature;BME280_humidity;BME280_pressure;Samples;Min_cycle;Max_cycle;Signal;HPM_P1;HPM_P2
2022/06/04 00:00:39;;;;;;;823.60;740.95;;;10.30;82.30;;;;;;5024445;28;20417;-67
2022/06/04 00:03:05;;;;;;;830.58;745.70;;;10.20;82.60;;;;;;5024891;28;20715;-67
2022/06/04 00:05:33;;;;;;;801.90;718.05;;;10.20;82.30;;;;;;5004298;28;20156;-67
2022/06/04 00:08:00;;;;;;;873.97;785.33;;;10.20;82.10;;;;;;5022248;28;20041;-67
2022/06/04 00:16:00;;;;;;;889.40;797.45;;;10.20;82.30;;;;;;5034735;28;20046;-67
2022/06/04 00:18:26;;;;;;;875.20;778.22;;;10.10;82.30;;;;;;5024086;28;20077;-67
2022/06/04 00:20:53;;;;;;;840.95;757.47;;;10.10;82.30;;;;;;5015401;28;20046;-67
2022/06/04 00:23:19;;;;;;;842.05;761.35;;;10.10;82.20;;;;;;5007912;28;20037;-67
2022/06/04 00:25:49;;;;;;;811.83;736.55;;;10.10;82.10;;;;;;5007594;28;20502;-67
2022/06/04 00:28:17;;;;;;;831.53;750.53;;;10.10;82.50;;;;;;5008885;28;20037;-67
2022/06/04 00:30:42;;;;;;;800.42;717.97;;;10.10;82.40;;;;;;5028064;28;20552;-67
2022/06/04 00:33:09;;;;;;;811.17;731.70;;;10.10;82.50;;;;;;5018136;28;20037;-67
2022/06/04 00:35:35;;;;;;;844.42;764.92;;;10.10;82.80;;;;;;5027452;28;20041;-67
2022/06/04 00:38:06;;;;;;;866.45;780.67;;;10.20;82.70;;;;;;5011261;28;20064;-67
2022/06/04 00:40:47;;;;;;;859.58;774.47;;;10.20;83.10;;;;;;5028838;28;20045;-67
2022/06/04 00:43:13;;;;;;;863.15;782.40;;;10.10;83.10;;;;;;5027811;28;20034;-67
2022/06/04 00:46:13;;;;;;;872.50;789.55;;;10.10;82.90;;;;;;5027997;28;20333;-67
2022/06/04 00:48:39;;;;;;;884.35;797.97;;;10.10;82.90;;;;;;5032022;28;20068;-67
2022/06/04 00:51:06;;;;;;;876.37;788.13;;;10.10;82.80;;;;;;5006399;28;20041;-67
2022/06/04 00:53:33;;;;;;;834.63;755.25;;;10.10;82.80;;;;;;5028052;28;20577;-67
2022/06/04 00:56:22;;;;;;;850.28;768.63;;;10.10;82.60;;;;;;5027685;28;20092;-67
2022/06/04 00:59:12;;;;;;;875.25;789.85;;;10.10;82.50;;;;;;5024994;28;20104;-67
2022/06/04 01:02:04;;;;;;;875.53;790.95;;;10.10;82.70;;;;;;5020226;28;20400;-67
2022/06/04 01:04:54;;;;;;;876.97;797.95;;;10.10;82.90;;;;;;5032595;28;20433;-67
2022/06/04 01:07:38;;;;;;;844.00;760.90;;;10.10;82.90;;;;;;5042323;28;20041;-67
2022/06/04 01:10:25;;;;;;;856.85;778.85;;;10.10;83.10;;;;;;5024317;28;20107;-67
2022/06/04 01:13:03;;;;;;;856.97;782.83;;;10.10;83.40;;;;;;5021899;28;20056;-67
2022/06/04 01:15:50;;;;;;;859.17;771.50;;;10.10;83.00;;;;;;5026252;28;20045;-67
2022/06/04 01:18:34;;;;;;;865.80;783.28;;;10.10;83.40;;;;;;5024138;28;20037;-67
2022/06/04 01:21:06;;;;;;;850.20;766.55;;;10.10;83.20;;;;;;5019362;28;20371;-67
2022/06/04 01:23:59;;;;;;;827.72;746.13;;;10.20;83.10;;;;;;5027524;28;20086;-67
2022/06/04 01:26:40;;;;;;;919.47;826.13;;;10.10;83.20;;;;;;5023020;28;20069;-67
2022/06/04 01:29:35;;;;;;;842.38;764.92;;;10.10;83.30;;;;;;5010378;28;20441;-67
2022/06/04 01:32:07;;;;;;;856.42;776.10;;;10.20;83.30;;;;;;5015814;28;20045;-67
2022/06/04 01:34:43;;;;;;;861.35;778.55;;;10.10;83.20;;;;;;5025042;28;20037;-67
2022/06/04 01:37:24;;;;;;;896.33;810.08;;;10.10;83.20;;;;;;5026647;28;20037;-67
2022/06/04 01:42:42;;;;;;;891.83;808.40;;;10.00;83.40;;;;;;5038910;28;20175;-67
2022/06/04 01:45:10;;;;;;;884.80;798.53;;;10.00;83.10;;;;;;5011058;28;20967;-67
2022/06/04 01:47:37;;;;;;;765.42;698.00;;;9.90;83.30;;;;;;5028278;28;20075;-67
2022/06/04 01:50:07;;;;;;;888.72;804.70;;;9.90;83.20;;;;;;5008038;28;20046;-67
2022/06/04 01:52:37;;;;;;;836.17;754.47;;;9.90;83.10;;;;;;5027186;28;20052;-67
2022/06/04 01:55:21;;;;;;;838.88;760.80;;;9.90;83.10;;;;;;5026890;28;20746;-67
2022/06/04 01:57:51;;;;;;;882.58;799.38;;;9.90;83.40;;;;;;5044040;28;20073;-67
2022/06/04 02:00:28;;;;;;;890.35;809.05;;;9.80;83.40;;;;;;5001062;28;20081;-67
2022/06/04 02:03:07;;;;;;;879.72;794.80;;;9.80;83.40;;;;;;5021703;28;20041;-67
2022/06/04 02:06:14;;;;;;;828.25;742.25;;;9.80;83.50;;;;;;5026592;28;20081;-67
2022/06/04 02:09:09;;;;;;;919.42;834.25;;;9.70;83.40;;;;;;4989970;28;20142;-67
2022/06/04 02:11:38;;;;;;;883.47;806.30;;;9.70;83.90;;;;;;4981747;28;20136;-67
2022/06/04 02:14:06;;;;;;;887.13;804.85;;;9.70;83.90;;;;;;4969902;28;20061;-67
2022/06/04 02:16:46;;;;;;;824.83;746.65;;;9.70;83.70;;;;;;5023481;28;20550;-67
2022/06/04 02:19:12;;;;;;;860.83;778.15;;;9.70;83.70;;;;;;5009414;28;20207;-67
2022/06/04 02:21:38;;;;;;;828.63;750.47;;;9.70;83.70;;;;;;5027037;28;20132;-67
2022/06/04 02:24:05;;;;;;;834.15;755.30;;;9.70;83.80;;;;;;5023316;28;20037;-67
2022/06/04 02:26:31;;;;;;;836.13;753.75;;;9.70;83.90;;;;;;5026743;28;20095;-67
2022/06/04 02:29:00;;;;;;;840.07;758.07;;;9.70;84.20;;;;;;5026512;28;20124;-67
2022/06/04 02:31:36;;;;;;;919.65;837.13;;;9.70;84.20;;;;;;5020884;28;20060;-67
2022/06/04 02:34:08;;;;;;;925.70;836.55;;;9.70;84.10;;;;;;5026068;28;20049;-67
2022/06/04 02:36:43;;;;;;;846.22;765.00;;;9.70;84.10;;;;;;5026234;28;20053;-67
2022/06/04 02:39:30;;;;;;;844.72;766.70;;;9.70;84.30;;;;;;5026262;28;20049;-67
2022/06/04 02:42:00;;;;;;;831.78;755.92;;;9.70;84.10;;;;;;5026424;28;20092;-67
2022/06/04 02:44:28;;;;;;;871.28;790.88;;;9.60;84.10;;;;;;5026192;28;20184;-67
2022/06/04 02:46:59;;;;;;;857.65;775.17;;;9.60;84.10;;;;;;5026991;28;20091;-67
2022/06/04 02:49:44;;;;;;;908.97;824.42;;;9.60;84.10;;;;;;5025991;28;20041;-67
2022/06/04 02:52:13;;;;;;;881.93;800.07;;;9.60;84.60;;;;;;5025694;28;20047;-67
2022/06/04 02:54:49;;;;;;;863.75;784.75;;;9.60;84.30;;;;;;5025607;28;20045;-67
2022/06/04 02:57:16;;;;;;;853.15;774.20;;;9.60;84.60;;;;;;5026456;28;20145;-67
2022/06/04 02:59:44;;;;;;;941.40;854.20;;;9.60;85.00;;;;;;5010147;28;20045;-67
2022/06/04 03:02:14;;;;;;;833.45;762.28;;;9.60;84.60;;;;;;5024621;28;20041;-67
2022/06/04 03:04:41;;;;;;;913.72;833.17;;;9.50;84.60;;;;;;5025841;28;20061;-67
2022/06/04 03:07:07;;;;;;;844.28;761.10;;;9.60;84.50;;;;;;5025555;28;20124;-67
2022/06/04 03:09:33;;;;;;;899.17;820.55;;;9.60;84.80;;;;;;5025456;28;20041;-67
2022/06/04 03:11:59;;;;;;;877.33;797.67;;;9.60;84.50;;;;;;5024728;28;20481;-67
2022/06/04 03:14:25;;;;;;;886.33;800.73;;;9.60;84.60;;;;;;5023653;28;20083;-67
2022/06/04 03:16:51;;;;;;;876.47;794.00;;;9.60;84.50;;;;;;5009173;28;20041;-67
2022/06/04 03:19:17;;;;;;;877.85;797.22;;;9.70;84.30;;;;;;5005569;28;20207;-67
2022/06/04 03:21:43;;;;;;;875.50;794.03;;;9.70;84.20;;;;;;5008149;28;20060;-67
2022/06/04 03:24:10;;;;;;;881.57;802.07;;;9.70;84.00;;;;;;5025230;28;20041;-67
2022/06/04 03:26:36;;;;;;;916.92;835.47;;;9.70;84.00;;;;;;5023487;28;20701;-67
2022/06/04 03:29:03;;;;;;;916.67;831.00;;;9.70;84.10;;;;;;5025030;28;20136;-67
2022/06/04 03:31:29;;;;;;;869.63;789.95;;;9.70;84.10;;;;;;5006223;28;20660;-67
2022/06/04 03:33:56;;;;;;;881.35;798.30;;;9.80;83.90;;;;;;5008351;28;20039;-67
2022/06/04 03:36:22;;;;;;;922.92;829.30;;;9.80;84.00;;;;;;5025294;28;20041;-67
2022/06/04 03:38:49;;;;;;;851.03;770.85;;;9.80;84.10;;;;;;4992390;28;20049;-67
2022/06/04 03:41:14;;;;;;;909.28;824.60;;;9.80;83.90;;;;;;5024668;28;20133;-67
2022/06/04 03:43:41;;;;;;;863.40;784.73;;;9.80;83.90;;;;;;5025668;28;20140;-67
2022/06/04 03:46:07;;;;;;;919.08;830.67;;;9.80;83.80;;;;;;4992277;28;20292;-67
2022/06/04 03:48:34;;;;;;;921.33;828.17;;;9.90;83.70;;;;;;5024884;28;20034;-67
2022/06/04 03:51:01;;;;;;;900.47;811.58;;;9.90;83.90;;;;;;5025299;28;20099;-67
2022/06/04 03:53:26;;;;;;;854.55;775.63;;;9.90;83.80;;;;;;5024373;28;20052;-69
2022/06/04 03:55:52;;;;;;;858.97;778.93;;;10.00;83.50;;;;;;5024028;28;20057;-68
2022/06/04 03:58:18;;;;;;;894.80;807.55;;;10.00;83.40;;;;;;5008370;28;20072;-68
2022/06/04 04:00:45;;;;;;;865.60;780.30;;;10.00;83.60;;;;;;5008667;28;20076;-67
2022/06/04 04:03:14;;;;;;;869.53;787.75;;;10.00;83.50;;;;;;5008074;28;20433;-68
2022/06/04 04:05:45;;;;;;;854.40;777.63;;;10.00;83.60;;;;;;5024019;28;20461;-68
2022/06/04 04:08:11;;;;;;;846.88;765.58;;;10.00;83.40;;;;;;5025114;28;20040;-68
2022/06/04 04:10:39;;;;;;;868.00;775.67;;;10.00;83.40;;;;;;5024298;28;20053;-68
2022/06/04 04:13:05;;;;;;;858.95;774.40;;;10.10;83.50;;;;;;5016961;28;20052;-68
2022/06/04 04:15:31;;;;;;;834.90;754.50;;;10.20;83.30;;;;;;5023471;28;20045;-68
2022/06/04 04:17:56;;;;;;;829.43;752.67;;;10.20;83.30;;;;;;5024715;28;20045;-68
2022/06/04 04:20:26;;;;;;;889.53;804.17;;;10.20;83.00;;;;;;5014352;28;20048;-68
2022/06/04 04:22:53;;;;;;;832.92;754.38;;;10.20;83.10;;;;;;5024608;28;20095;-67
2022/06/04 04:25:21;;;;;;;803.25;732.08;;;10.30;82.80;;;;;;5016981;28;20041;-67
2022/06/04 04:27:47;;;;;;;837.63;750.08;;;10.40;82.60;;;;;;5006748;28;20056;-67
2022/06/04 04:30:16;;;;;;;856.47;771.00;;;10.40;82.60;;;;;;5022992;28;20121;-67
2022/06/04 04:32:42;;;;;;;823.50;743.50;;;10.40;82.60;;;;;;5014147;28;20172;-68
2022/06/04 04:35:13;;;;;;;852.70;765.45;;;10.50;82.80;;;;;;5024163;28;20072;-68
2022/06/04 04:37:39;;;;;;;823.50;738.88;;;10.80;83.50;;;;;;5024882;28;20041;-68
2022/06/04 04:40:05;;;;;;;879.73;769.57;;;11.50;82.70;;;;;;4991962;28;20187;-68
2022/06/04 04:42:31;;;;;;;970.97;798.38;;;12.20;80.40;;;;;;5024336;28;20156;-68
2022/06/04 04:44:56;;;;;;;1026.37;783.43;;;12.50;78.30;;;;;;5007338;28;20545;-68
2022/06/04 04:47:22;;;;;;;882.23;735.00;;;12.60;77.10;;;;;;5025159;28;20033;-68
2022/06/04 04:49:48;;;;;;;976.33;745.37;;;12.70;77.10;;;;;;5020265;28;20038;-68
2022/06/04 04:52:14;;;;;;;909.93;709.13;;;12.70;76.80;;;;;;5008425;28;20510;-68
2022/06/04 04:54:40;;;;;;;977.33;764.73;;;12.70;77.20;;;;;;5012142;28;20034;-68
2022/06/04 04:57:05;;;;;;;865.10;729.83;;;13.00;77.20;;;;;;5021228;28;20256;-68
2022/06/04 04:59:31;;;;;;;903.20;655.53;;;13.40;76.20;;;;;;5024296;28;20045;-68
2022/06/04 05:01:57;;;;;;;936.10;668.13;;;14.10;74.50;;;;;;5024872;28;20464;-67
2022/06/04 05:04:23;;;;;;;993.60;710.70;;;14.70;72.00;;;;;;5022789;28;20033;-68
2022/06/04 05:06:49;;;;;;;1036.67;724.10;;;15.00;71.10;;;;;;5023652;28;20037;-68
2022/06/04 05:09:14;;;;;;;972.07;679.77;;;15.60;69.60;;;;;;5023850;28;20041;-68
2022/06/04 05:11:40;;;;;;;1116.23;717.77;;;16.10;67.80;;;;;;5023915;28;20445;-68
2022/06/04 05:14:06;;;;;;;1160.73;789.17;;;16.70;67.00;;;;;;5023397;28;20041;-69
2022/06/04 05:16:36;;;;;;;1178.53;724.23;;;17.30;64.70;;;;;;5025641;28;21011;-68
2022/06/04 05:19:03;;;;;;;1108.43;762.03;;;17.60;63.30;;;;;;5038830;28;20216;-68
2022/06/04 05:21:37;;;;;;;1073.83;704.00;;;17.90;62.20;;;;;;5009902;28;20307;-68
2022/06/04 05:24:04;;;;;;;1123.68;779.95;;;18.00;60.80;;;;;;5023803;28;20288;-68
2022/06/04 05:26:31;;;;;;;1116.17;806.17;;;17.40;61.30;;;;;;5008934;28;20041;-68
2022/06/04 05:28:57;;;;;;;1240.83;799.00;;;16.60;62.20;;;;;;5026270;28;20284;-68
2022/06/04 05:31:23;;;;;;;1106.20;764.37;;;15.90;63.90;;;;;;5026206;28;20605;-68
2022/06/04 05:33:49;;;;;;;1018.43;778.77;;;16.20;64.50;;;;;;5020518;28;20397;-68
2022/06/04 05:36:15;;;;;;;1053.10;769.87;;;16.70;63.60;;;;;;5008699;28;20295;-68
2022/06/04 05:38:41;;;;;;;1084.40;773.73;;;17.20;62.30;;;;;;5027274;28;20295;-68
2022/06/04 05:41:11;;;;;;;1221.60;787.60;;;17.50;60.70;;;;;;5028117;28;20323;-68
2022/06/04 05:43:40;;;;;;;1188.30;779.10;;;17.70;59.90;;;;;;5025034;28;20527;-68
2022/06/04 05:46:11;;;;;;;1109.63;780.90;;;17.90;59.20;;;;;;5025175;28;20453;-68
2022/06/04 05:48:38;;;;;;;1219.73;799.93;;;17.80;58.90;;;;;;5011366;28;20875;-68
2022/06/04 05:51:05;;;;;;;1249.70;802.43;;;17.80;59.00;;;;;;5039851;28;20389;-68
2022/06/04 05:53:30;;;;;;;1268.27;815.90;;;17.80;59.40;;;;;;4999565;28;20297;-69
2022/06/04 05:55:56;;;;;;;1569.57;858.07;;;17.90;58.90;;;;;;5009900;28;20324;-68
2022/06/04 05:58:22;;;;;;;1148.07;770.23;;;18.00;58.30;;;;;;5017985;28;20077;-68
2022/06/04 06:00:47;;;;;;;1295.50;821.00;;;17.90;58.20;;;;;;5011085;28;20129;-68
2022/06/04 06:03:14;;;;;;;1276.73;810.53;;;18.10;58.30;;;;;;5010557;28;20049;-68
2022/06/04 06:05:45;;;;;;;1251.73;804.07;;;18.40;57.80;;;;;;5026767;28;20072;-68
2022/06/04 06:08:11;;;;;;;1313.93;831.20;;;18.70;56.80;;;;;;5009751;28;20708;-68
2022/06/04 06:10:39;;;;;;;1343.00;834.43;;;18.80;56.70;;;;;;5026653;28;20292;-68
2022/06/04 06:13:05;;;;;;;1271.10;858.70;;;18.90;56.60;;;;;;5010104;28;20323;-68
2022/06/04 06:15:31;;;;;;;1328.10;818.73;;;19.10;56.50;;;;;;5025513;28;20838;-69
2022/06/04 06:17:57;;;;;;;1292.83;838.27;;;19.20;55.70;;;;;;5027022;28;20077;-68
2022/06/04 06:20:22;;;;;;;1268.63;816.97;;;19.20;54.90;;;;;;5009566;28;20698;-68
2022/06/04 06:22:48;;;;;;;1311.47;813.20;;;19.10;55.60;;;;;;5025681;28;20476;-68
2022/06/04 06:25:16;;;;;;;1309.20;842.33;;;19.10;55.80;;;;;;5041584;28;20164;-68
2022/06/04 06:27:43;;;;;;;1333.70;836.07;;;19.10;55.80;;;;;;5024866;28;20571;-68
2022/06/04 06:30:09;;;;;;;1317.17;816.77;;;19.20;55.50;;;;;;5010303;28;20327;-68
2022/06/04 06:32:35;;;;;;;1240.83;822.50;;;19.30;55.50;;;;;;5026471;28;20296;-68
2022/06/04 06:35:02;;;;;;;1347.10;867.93;;;19.40;55.60;;;;;;5025124;28;20346;-68
2022/06/04 06:37:28;;;;;;;1297.27;813.83;;;19.50;55.60;;;;;;5010433;28;20290;-68
2022/06/04 06:39:55;;;;;;;1299.00;855.80;;;19.50;55.10;;;;;;5025235;28;20296;-68
2022/06/04 06:42:22;;;;;;;1329.37;872.07;;;19.20;54.80;;;;;;5024230;28;20512;-68
2022/06/04 06:44:48;;;;;;;1386.47;859.20;;;18.80;55.00;;;;;;5008498;28;20281;-68
2022/06/04 06:47:14;;;;;;;1388.13;878.83;;;18.20;56.40;;;;;;4994236;28;20327;-68
2022/06/04 06:49:41;;;;;;;1390.30;865.43;;;17.80;57.00;;;;;;5017851;28;20296;-68
2022/06/04 06:52:06;;;;;;;1398.63;864.20;;;17.30;58.20;;;;;;5026351;28;20784;-68
2022/06/04 06:54:34;;;;;;;1377.33;889.47;;;17.10;58.90;;;;;;5024923;28;20296;-68
2022/06/04 06:57:03;;;;;;;1342.33;845.50;;;17.10;59.20;;;;;;5026279;28;20061;-68
2022/06/04 06:59:29;;;;;;;1402.03;848.37;;;17.10;59.30;;;;;;5022517;28;20399;-68
2022/06/04 07:01:56;;;;;;;1297.70;864.23;;;17.20;59.60;;;;;;4993725;28;20367;-68
2022/06/04 07:04:22;;;;;;;1370.63;878.47;;;17.10;59.80;;;;;;5008487;28;20041;-68
2022/06/04 07:06:53;;;;;;;1424.23;878.77;;;17.10;59.50;;;;;;5026384;28;20334;-68
2022/06/04 07:09:22;;;;;;;1397.97;888.13;;;16.90;60.10;;;;;;5024051;28;20394;-68
2022/06/04 07:11:48;;;;;;;1195.73;807.27;;;16.70;61.10;;;;;;5025475;28;20334;-68
2022/06/04 07:14:14;;;;;;;1349.43;891.53;;;16.70;61.20;;;;;;5008699;28;20308;-68
2022/06/04 07:16:42;;;;;;;1377.30;861.83;;;16.60;61.70;;;;;;5020237;28;20072;-69
2022/06/04 07:19:08;;;;;;;1346.47;841.37;;;16.50;61.90;;;;;;5011609;28;20403;-69
2022/06/04 07:21:34;;;;;;;1398.13;882.73;;;16.40;63.00;;;;;;5006548;28;20288;-69
2022/06/04 07:24:00;;;;;;;1365.53;870.00;;;16.30;62.90;;;;;;5025008;28;20283;-69
2022/06/04 07:26:27;;;;;;;1352.47;887.47;;;16.30;62.40;;;;;;5025201;28;20050;-68
2022/06/04 07:28:53;;;;;;;1305.17;847.77;;;16.20;62.30;;;;;;5025572;28;20321;-69
2022/06/04 07:31:20;;;;;;;1325.83;894.27;;;16.20;62.10;;;;;;5002873;28;20291;-68
2022/06/04 07:33:48;;;;;;;1421.00;917.07;;;16.20;61.80;;;;;;5018903;28;20280;-68
2022/06/04 07:36:29;;;;;;;1365.90;828.97;;;16.10;61.90;;;;;;5004323;28;20292;-68
2022/06/04 07:38:55;;;;;;;1383.33;892.53;;;16.10;61.60;;;;;;5018116;28;20634;-68
2022/06/04 07:41:25;;;;;;;1404.00;914.87;;;16.10;62.50;;;;;;5020707;28;20302;-68
2022/06/04 07:43:51;;;;;;;1419.43;911.23;;;16.10;62.70;;;;;;5019064;28;20288;-68
2022/06/04 07:46:18;;;;;;;1380.67;921.37;;;16.20;61.90;;;;;;5012758;28;20685;-68
2022/06/04 07:48:44;;;;;;;1337.87;914.63;;;16.20;60.60;;;;;;5016925;28;20314;-68
2022/06/04 07:51:10;;;;;;;1251.37;935.60;;;16.20;61.20;;;;;;5003150;28;20897;-68
2022/06/04 07:53:36;;;;;;;1358.13;894.07;;;16.20;61.30;;;;;;5012308;28;20570;-68
2022/06/04 07:56:08;;;;;;;1299.17;874.73;;;16.30;61.10;;;;;;5014245;28;20303;-68
2022/06/04 07:58:35;;;;;;;1370.53;912.00;;;16.30;61.00;;;;;;5018014;28;20484;-68
2022/06/04 08:01:03;;;;;;;1405.83;896.27;;;16.50;60.60;;;;;;5016509;28;20300;-69
2022/06/04 08:03:30;;;;;;;1360.07;871.37;;;16.50;60.90;;;;;;4998793;28;20369;-69
2022/06/04 08:05:55;;;;;;;1469.53;925.20;;;16.70;60.10;;;;;;4998679;28;20287;-68
2022/06/04 08:08:21;;;;;;;1462.20;908.30;;;16.70;60.30;;;;;;5012156;28;20289;-69
2022/06/04 08:10:48;;;;;;;1338.53;887.30;;;16.70;60.50;;;;;;5014583;28;20412;-68
2022/06/04 08:13:19;;;;;;;1240.80;896.33;;;16.90;60.70;;;;;;5010630;28;20121;-69
2022/06/04 08:15:44;;;;;;;1344.10;923.87;;;17.10;60.20;;;;;;5005015;28;20756;-68
2022/06/04 08:18:11;;;;;;;1261.20;860.30;;;17.30;59.20;;;;;;5038732;28;20365;-69
2022/06/04 08:20:41;;;;;;;1353.00;868.07;;;17.50;59.40;;;;;;4998662;28;20045;-69
2022/06/04 08:23:08;;;;;;;1283.00;906.40;;;17.70;59.10;;;;;;5022395;28;20303;-69
2022/06/04 08:25:41;;;;;;;1260.87;887.13;;;17.90;58.00;;;;;;5016910;28;20291;-68
2022/06/04 08:28:07;;;;;;;1333.97;943.03;;;17.80;58.30;;;;;;5027196;28;20281;-68
2022/06/04 08:30:34;;;;;;;1280.07;847.07;;;17.80;58.20;;;;;;5019492;28;20658;-69
2022/06/04 08:32:59;;;;;;;1246.40;909.07;;;17.70;58.10;;;;;;5016590;28;20300;-68
2022/06/04 08:35:25;;;;;;;1332.53;922.47;;;17.70;58.30;;;;;;5017862;28;20299;-68
2022/06/04 08:37:51;;;;;;;1142.60;933.47;;;17.60;58.40;;;;;;5010476;28;20526;-68
2022/06/04 08:40:41;;;;;;;1144.77;894.00;;;17.70;58.80;;;;;;5010915;28;20045;-69
2022/06/04 08:43:35;;;;;;;1184.03;904.97;;;17.80;59.10;;;;;;5017136;28;20037;-68
2022/06/04 08:46:09;;;;;;;1192.40;887.93;;;18.00;57.90;;;;;;5015207;28;20913;-68
2022/06/04 08:48:37;;;;;;;1181.80;915.37;;;17.90;57.80;;;;;;5014892;28;20354;-69
2022/06/04 08:51:13;;;;;;;1117.03;912.40;;;17.90;57.30;;;;;;5018194;28;20305;-69
2022/06/04 08:53:39;;;;;;;1205.17;895.87;;;17.70;58.00;;;;;;5021623;28;20319;-69
2022/06/04 08:59:24;;;;;;;1186.17;936.97;;;17.60;58.70;;;;;;5032423;28;20148;-69
2022/06/04 09:01:58;;;;;;;1250.17;898.53;;;17.40;58.80;;;;;;4980919;28;20293;-69
2022/06/04 09:04:30;;;;;;;1090.78;900.50;;;17.40;58.80;;;;;;5025323;28;20337;-68
2022/06/04 09:07:07;;;;;;;1073.77;864.17;;;17.50;59.20;;;;;;5006481;28;20033;-68
2022/06/04 09:09:46;;;;;;;1166.50;903.50;;;17.50;59.30;;;;;;5018418;28;20296;-68
2022/06/04 09:12:42;;;;;;;1163.67;924.77;;;17.70;59.40;;;;;;5019723;28;20304;-69
2022/06/04 09:15:41;;;;;;;1219.63;914.03;;;17.90;58.90;;;;;;5002331;28;20354;-69
2022/06/04 09:18:22;;;;;;;1207.73;919.00;;;17.90;58.60;;;;;;5010343;28;20269;-69
2022/06/04 09:20:51;;;;;;;1145.13;912.80;;;18.00;57.30;;;;;;5002275;28;20550;-69
2022/06/04 09:23:36;;;;;;;1235.73;912.70;;;17.90;58.00;;;;;;5010383;28;20614;-69
2022/06/04 09:26:07;;;;;;;;;;;18.00;57.20;;;;;;5013803;28;20292;-69
2022/06/04 09:28:49;;;;;;;1206.23;960.93;;;18.10;57.40;;;;;;5020849;28;19917;-69
2022/06/04 09:31:18;;;;;;;1139.37;922.17;;;18.30;56.50;;;;;;5027841;28;20649;-69
2022/06/04 09:33:53;;;;;;;1193.20;887.23;;;18.30;57.20;;;;;;5019321;28;20276;-69
2022/06/04 09:36:24;;;;;;;1140.87;932.23;;;18.40;57.30;;;;;;5026062;28;20303;-69
2022/06/04 09:38:56;;;;;;;1236.70;936.93;;;18.50;56.60;;;;;;5026526;28;20652;-69
2022/06/04 09:41:24;;;;;;;1245.73;949.67;;;18.60;56.20;;;;;;5027858;28;20656;-69
2022/06/04 09:44:13;;;;;;;1208.10;931.73;;;18.70;55.70;;;;;;5006587;28;20284;-68
2022/06/04 09:46:45;;;;;;;1382.03;928.17;;;18.80;56.60;;;;;;5038694;28;20280;-69
2022/06/04 09:49:30;;;;;;;1347.03;956.83;;;18.80;55.50;;;;;;5011736;28;20383;-69
2022/06/04 09:51:56;;;;;;;1379.75;964.83;;;18.60;55.30;;;;;;5028206;28;20858;-69
2022/06/04 09:54:29;;;;;;;1268.70;965.47;;;18.40;55.90;;;;;;5027503;28;20037;-69
2022/06/04 09:57:02;;;;;;;1442.43;965.80;;;18.30;56.50;;;;;;5027420;28;20389;-69
2022/06/04 09:59:32;;;;;;;1188.10;918.97;;;18.30;56.60;;;;;;5028092;28;20386;-69
2022/06/04 10:02:10;;;;;;;1381.33;948.13;;;18.30;56.70;;;;;;5004823;28;20281;-69
2022/06/04 10:04:40;;;;;;;1235.47;935.07;;;18.40;56.70;;;;;;5026137;28;20292;-68
2022/06/04 10:07:13;;;;;;;1180.73;920.07;;;18.40;56.50;;;;;;5009462;28;20343;-68
2022/06/04 10:09:56;;;;;;;1306.37;910.30;;;18.40;57.50;;;;;;5023999;28;20739;-68
2022/06/04 10:15:44;;;;;;;1286.40;944.67;;;18.70;58.10;;;;;;5025798;28;20288;-69
2022/06/04 10:18:21;;;;;;;1341.07;885.20;;;18.90;56.40;;;;;;5010408;28;20284;-69
2022/06/04 10:21:14;;;;;;;1291.63;948.70;;;18.90;57.00;;;;;;5025374;28;20312;-69
2022/06/04 10:23:46;;;;;;;1153.73;907.50;;;18.90;56.20;;;;;;5000701;28;20291;-69
2022/06/04 10:26:29;;;;;;;1468.90;946.80;;;18.80;56.80;;;;;;5001350;28;20308;-69
2022/06/04 10:29:23;;;;;;;1227.40;893.90;;;18.90;56.50;;;;;;5009561;28;20367;-68
2022/06/04 10:31:52;;;;;;;1388.47;975.40;;;18.90;57.00;;;;;;5026071;28;20311;-68
2022/06/04 10:34:38;;;;;;;1145.03;934.53;;;19.00;56.00;;;;;;5025106;28;20276;-69
2022/06/04 10:37:34;;;;;;;1226.00;880.87;;;19.00;56.30;;;;;;5039528;28;20286;-68
2022/06/04 10:40:25;;;;;;;1308.93;944.83;;;19.00;57.00;;;;;;5026322;28;20316;-69
2022/06/04 10:43:01;;;;;;;1275.40;906.73;;;19.10;56.20;;;;;;5034924;28;20316;-69
2022/06/04 10:45:54;;;;;;;1168.53;901.87;;;19.10;56.10;;;;;;5025684;28;20305;-69
2022/06/04 10:49:01;;;;;;;1297.07;934.70;;;19.20;57.50;;;;;;5026140;28;20288;-69
2022/06/04 10:51:47;;;;;;;1410.37;964.67;;;19.30;55.60;;;;;;5019542;28;20335;-69
2022/06/04 10:54:25;;;;;;;1352.83;941.60;;;19.30;55.70;;;;;;5025601;28;20300;-69
2022/06/04 10:57:07;;;;;;;1219.77;947.03;;;19.30;55.70;;;;;;5007734;28;20344;-69
2022/06/04 10:59:47;;;;;;;1179.87;923.80;;;19.30;55.50;;;;;;5016170;28;20305;-69
2022/06/04 11:02:51;;;;;;;1243.70;896.10;;;19.40;56.00;;;;;;5042745;28;20357;-69
2022/06/04 11:05:24;;;;;;;1284.93;934.73;;;19.60;56.40;;;;;;5018022;28;20281;-69
2022/06/04 11:08:20;;;;;;;1267.93;910.03;;;19.50;55.40;;;;;;5016476;28;20277;-68
2022/06/04 11:10:47;;;;;;;;;;;19.50;55.70;;;;;;5020122;28;20280;-69
2022/06/04 11:13:43;;;;;;;1334.93;980.97;;;19.40;56.20;;;;;;4999888;28;19924;-69
2022/06/04 11:16:33;;;;;;;1279.23;955.00;;;19.40;56.20;;;;;;5023922;28;20826;-69
2022/06/04 11:19:38;;;;;;;1256.87;953.97;;;19.50;56.40;;;;;;5002940;28;20341;-69
2022/06/04 11:22:18;;;;;;;1249.00;919.23;;;19.50;57.10;;;;;;5017588;28;20338;-69
2022/06/04 11:24:49;;;;;;;1344.47;933.93;;;19.60;56.80;;;;;;5017986;28;20280;-69
2022/06/04 11:27:22;;;;;;;1415.00;925.77;;;19.70;55.90;;;;;;5018545;28;20350;-69
2022/06/04 11:29:50;;;;;;;1249.83;930.30;;;19.70;55.00;;;;;;5018568;28;20424;-69
2022/06/04 11:32:29;;;;;;;1397.87;946.10;;;19.70;55.50;;;;;;5015194;28;20284;-69
2022/06/04 11:35:03;;;;;;;1332.90;937.73;;;19.70;55.90;;;;;;5015871;28;20288;-70
2022/06/04 11:37:45;;;;;;;1253.03;954.13;;;19.80;55.60;;;;;;5019339;28;20644;-69
2022/06/04 11:40:44;;;;;;;1286.03;957.67;;;19.90;55.70;;;;;;5016075;28;20875;-69
2022/06/04 11:43:12;;;;;;;1304.57;942.33;;;19.90;55.50;;;;;;5015600;28;20287;-69
2022/06/04 11:45:41;;;;;;;1442.70;992.23;;;19.80;55.40;;;;;;5033595;28;20276;-70
2022/06/04 11:48:31;;;;;;;1335.67;930.87;;;19.80;55.10;;;;;;5018049;28;20283;-69
2022/06/04 11:51:21;;;;;;;1251.17;980.37;;;19.70;55.40;;;;;;5021523;28;20373;-69
2022/06/04 11:53:57;;;;;;;1307.60;937.37;;;19.70;56.10;;;;;;5023558;28;20643;-69
2022/06/04 11:56:55;;;;;;;1346.57;943.17;;;19.90;56.20;;;;;;5024087;28;20292;-69
2022/06/04 11:59:21;;;;;;;1382.80;969.17;;;20.00;54.70;;;;;;5002850;28;20475;-69
2022/06/04 12:02:00;;;;;;;1475.13;943.57;;;19.90;54.20;;;;;;5024133;28;20402;-68
2022/06/04 12:04:35;;;;;;;1407.83;942.53;;;19.90;54.50;;;;;;5023251;28;20579;-69
2022/06/04 12:07:20;;;;;;;;;;;20.00;54.30;;;;;;5008796;28;20311;-69
2022/06/04 12:09:59;;;;;;;1301.43;941.60;;;19.90;53.80;;;;;;5033021;28;19921;-68
2022/06/04 12:12:28;;;;;;;1637.60;985.27;;;19.70;55.40;;;;;;5020325;28;20783;-69
2022/06/04 12:15:06;;;;;;;1377.93;943.27;;;19.80;54.50;;;;;;4997326;28;20323;-69
2022/06/04 12:17:48;;;;;;;1331.87;950.63;;;19.80;54.50;;;;;;5021974;28;20292;-69
2022/06/04 12:26:19;;;;;;;1345.57;942.73;;;19.50;55.10;;;;;;5035787;28;20285;-69
2022/06/04 12:28:45;;;;;;;1313.07;954.63;;;19.50;55.80;;;;;;5014833;28;20285;-69
2022/06/04 12:31:11;;;;;;;1398.90;945.27;;;19.50;55.70;;;;;;5024170;28;20292;-69
2022/06/04 12:33:51;;;;;;;1290.83;944.40;;;19.50;55.00;;;;;;5018315;28;20497;-69
2022/06/04 12:36:36;;;;;;;1430.37;954.77;;;19.50;55.20;;;;;;5045701;28;20049;-69
2022/06/04 12:39:29;;;;;;;1382.90;922.67;;;19.60;55.50;;;;;;5015640;28;20295;-69
2022/06/04 12:42:01;;;;;;;1439.67;955.10;;;19.70;54.50;;;;;;5018664;28;20797;-68
2022/06/04 12:44:32;;;;;;;1378.07;890.37;;;19.70;54.70;;;;;;5017071;28;20276;-69
2022/06/04 12:47:19;;;;;;;1349.00;919.57;;;19.70;55.30;;;;;;5017833;28;20356;-69
2022/06/04 12:49:57;;;;;;;1424.57;962.13;;;19.80;54.40;;;;;;5018202;28;20756;-68
2022/06/04 12:52:47;;;;;;;1317.47;958.77;;;19.80;54.80;;;;;;5020604;28;20300;-68